ADDS METAR Data INFO
IDs: Format: Raw Decoded Include TAF

Data at: 0738 UTC 21 Jul 2018

PAWI 210727Z AUTO 23011KT 4SM BR OVC010 08/08 A3013 RMK AO2 T00830078 TSNO
PAWI 210653Z AUTO 23012KT 8SM BKN007 OVC011 08/08 A3013 RMK AO2 SLP201 T00830078 TSNO
PAWI 210650Z AUTO 23012KT 8SM OVC011 08/08 A3013 RMK AO2 TSNO
PAWI 210553Z AUTO 23010KT 6SM BR OVC007 08/08 A3012 RMK AO2 CIG 002V010 SLP201 T00830083 10100 20072 50000 TSNO
PAWI 210517Z AUTO 22010KT 3SM BR BKN004 OVC008 08/08 A3012 RMK AO2 T00830083 TSNO
PAWI 210459Z AUTO 22012KT 3SM BR BKN003 OVC009 08/08 A3012 RMK AO2 T00830083 TSNO
PAWI 210453Z AUTO 22011KT 2SM BR OVC004 08/08 A3012 RMK AO2 SLP200 T00830083 TSNO
PAWI 210442Z AUTO 22011KT 2 1/2SM BR OVC004 09/08 A3012 RMK AO2 T00890083 TSNO
PAWI 210353Z AUTO 22008KT 8SM OVC008 08/08 A3013 RMK AO2 SLP203 T00830078 TSNO
PAWI 210327Z AUTO 23008KT 3SM BR OVC008 08/08 A3013 RMK AO2 T00780078 TSNO
PAWI 210318Z AUTO 24008KT 2 1/2SM BR OVC008 08/07 A3013 RMK AO2 T00780072 TSNO
PAWI 210253Z AUTO 23010KT 10SM FEW004 OVC009 08/07 A3012 RMK AO2 CIG 006V013 SLP201 T00780067 51007 TSNO
PAWI 210236Z AUTO 23012KT 5SM BR FEW005 BKN010 OVC017 07/07 A3012 RMK AO2 T00720067 TSNO
PAWI 210153Z AUTO 21014KT 10SM OVC026 09/05 A3011 RMK AO2 SLP198 T00890050 TSNO
PAWI 210128Z AUTO 23015KT 10SM BKN029 OVC034 09/05 A3011 RMK AO2 T00940050 TSNO
PAWI 210053Z AUTO 22013KT 10SM BKN034 BKN043 OVC060 09/05 A3010 RMK AO2 SLP195 T00940050 TSNO
PAWI 210033Z AUTO 22011KT 10SM SCT028 BKN060 OVC075 09/05 A3011 RMK AO2 T00940050 TSNO
PAWI 210021Z AUTO 22014KT 10SM BKN028 OVC070 09/04 A3010 RMK AO2 T00940039 TSNO
PAWI 202353Z AUTO 22010KT 10SM BKN035 OVC075 09/04 A3010 RMK AO2 SLP195 T00940039 10094 20061 58001 TSNO
PAWI 202253Z AUTO 23012KT 10SM OVC039 08/03 A3011 RMK AO2 SLP197 T00830033 TSNO
PAWI 202153Z AUTO 24009KT 10SM OVC060 08/04 A3010 RMK AO2 SLP195 T00830039 TSNO
PAWI 202053Z AUTO 24010KT 10SM CLR 08/04 A3011 RMK AO2 SLP196 T00780039 55002 TSNO
PAWI 201953Z AUTO 24009KT 10SM CLR 08/04 A3011 RMK AO2 SLP196 T00780039 TSNO
PAWI 201853Z AUTO 23011KT 10SM FEW015 07/03 A3010 RMK AO2 SLP194 T00720028 TSNO
PAWI 201846Z AUTO 22011KT 10SM SCT015 07/03 A3010 RMK AO2 T00670028 TSNO
PAWI 201753Z AUTO 23010KT 10SM OVC015 06/02 A3011 RMK AO2 SLP198 T00560022 10061 20044 58009 TSNO
PAWI 201653Z AUTO 23010KT 10SM OVC015 06/02 A3012 RMK AO2 SLP201 T00560017 TSNO
PAWI 201640Z AUTO 25009KT 10SM OVC015 05/02 A3012 RMK AO2 T00500022 TSNO
PAWI 201553Z AUTO 24008KT 10SM OVC014 05/02 A3013 RMK AO2 SLP205 T00500017 TSNO
PAWI 201453Z AUTO 24009KT 10SM OVC014 05/02 A3014 RMK AO2 SLP207 T00500017 56004 TSNO
PAWI 201353Z AUTO 24011KT 10SM OVC014 04/02 A3014 RMK AO2 SLP208 T00440017 TSNO
PAWI 201253Z AUTO 24011KT 10SM OVC013 04/02 A3015 RMK AO2 SLP209 T00440017 TSNO
PAWI 201153Z AUTO 25010KT 10SM OVC013 04/02 A3015 RMK AO2 SLP211 T00440017 10050 20044 56002 TSNO
PAWI 201053Z AUTO 24013G18KT 10SM OVC014 04/02 A3015 RMK AO2 SLP211 T00440017 TSNO
PAWI 200953Z AUTO 25012G20KT 10SM OVC014 04/02 A3015 RMK AO2 SLP212 T00440017 TSNO
PAWI 200931Z AUTO 24014G19KT 10SM OVC014 04/02 A3015 RMK AO2 T00440017 TSNO
PAWI 200853Z AUTO 24014KT 10SM OVC015 04/01 A3016 RMK AO2 SLP212 T00440011 400610033 55000 TSNO
PAWI 200826Z AUTO 24012KT 10SM OVC015 04/01 A3016 RMK AO2 T00440011 TSNO
PAWI 200808Z AUTO 24016G21KT 10SM OVC014 04/02 A3015 RMK AO2 T00440017 TSNO
PAWI 200753Z AUTO 24013KT 10SM OVC016 04/01 A3015 RMK AO2 SLP211 T00440011 TSNO
PAWI 200653Z AUTO 23014KT 10SM OVC018 04/01 A3015 RMK AO2 SLP212 T00440011 TSNO
PAWI 200642Z AUTO 25015G20KT 10SM OVC016 05/01 A3016 RMK AO2 T00500011 TSNO
PAWI 200634Z AUTO 25016KT 10SM OVC014 05/01 A3015 RMK AO2 T00500011 TSNO
PAWI 200553Z AUTO 24014KT 10SM OVC017 05/01 A3016 RMK AO2 SLP213 T00500011 10056 20044 50000 TSNO
PAWI 200453Z AUTO 23017KT 10SM OVC019 05/01 A3016 RMK AO2 SLP213 T00500011 TSNO
PAWI 200353Z AUTO 25014G22KT 10SM OVC020 05/01 A3016 RMK AO2 SLP214 T00500006 TSNO
PAWI 200253Z AUTO 25015KT 10SM OVC018 05/01 A3016 RMK AO2 SLP212 T00500011 51013 TSNO
PAWI 200153Z AUTO 27015G21KT 10SM OVC023 04/01 A3015 RMK AO2 SLP210 T00440011 TSNO
PAWI 200053Z AUTO 27018G23KT 10SM BKN024 OVC030 05/01 A3013 RMK AO2 SLP205 T00500011 TSNO
PAWI 192353Z AUTO 27017G22KT 10SM FEW018 BKN025 OVC033 05/02 A3012 RMK AO2 SLP200 60000 T00500017 10061 20039 51020 TSNO
PAWI 192321Z AUTO 26012G22KT 8SM SCT021 BKN026 OVC033 04/01 A3012 RMK AO2 T00440011 TSNO
PAWI 192307Z AUTO 26014KT 10SM FEW021 OVC030 05/01 A3011 RMK AO2 T00500011 TSNO
PAWI 192253Z AUTO 25016G22KT 10SM BKN028 OVC033 06/00 A3011 RMK AO2 SLP195 T00560000 TSNO
PAWI 192153Z AUTO 27018G21KT 10SM OVC025 06/00 A3008 RMK AO2 SLP186 T00560000 TSNO
PAWI 192132Z AUTO 26017G23KT 10SM BKN022 BKN027 06/00 A3007 RMK AO2 T00560000 TSNO
PAWI 192122Z AUTO 27018G24KT 10SM SCT021 06/01 A3007 RMK AO2 T00560011 TSNO
PAWI 192053Z AUTO 26018G26KT 10SM OVC023 06/01 A3006 RMK AO2 PK WND 27027/1958 SLP180 60000 T00560006 53021 TSNO
PAWI 191953Z AUTO 27017G24KT 10SM BKN022 OVC027 06/01 A3004 RMK AO2 SLP173 T00560011 TSNO